Terminal Aerodrome Forecast
Issued by NWS

Home | Current Version | Previous Version | Text Only | Print | Product List | Glossary On
Versions: 1 2 3 4 5 6 7 8 9 10 11 12 13 14 15 16 17 18 19 20 21 22 23
000
FTUS45 KBOI 061720
TAFJER
TAF
KJER 061720Z 0618/0718 25015KT P6SM VCSH BKN100
     FM070300 23014KT P6SM -SHRA BKN050 OVC100
     FM070700 22010KT P6SM VCSH BKN050 OVC100=

USA.gov is the U.S. government's official web portal to all federal, state and local government web resources and services.